Time;durP1;ratioP1;P1;durP2;ratioP2;P2;SDS_P1;SDS_P2;PMS_P1;PMS_P2;Temp;Humidity;BMP_temperature;BMP_pressure;BME280_temperature;BME280_humidity;BME280_pressure;Samples;Min_cycle;Max_cycle;Signal;HPM_P1;HPM_P2
2023/01/09 00:01:25;;;;;;;22.40;16.02;;;17.40;76.50;;;18.45;42.89;97667.81;5079572;27;20425;-80
2023/01/09 00:03:51;;;;;;;25.50;17.02;;;17.40;76.50;;;18.51;42.87;97665.59;5081261;28;20035;-79
2023/01/09 00:06:17;;;;;;;24.95;17.10;;;17.50;76.10;;;18.48;42.94;97660.81;5094967;28;20386;-79
2023/01/09 00:08:43;;;;;;;23.55;16.60;;;17.50;76.50;;;18.53;42.51;97660.56;5073092;28;20039;-79
2023/01/09 00:11:09;;;;;;;26.35;16.88;;;17.50;76.60;;;18.53;42.89;97661.34;5112935;27;20176;-79
2023/01/09 00:13:35;;;;;;;28.92;17.65;;;17.50;76.20;;;18.59;42.68;97654.44;5096267;28;20047;-79
2023/01/09 00:16:04;;;;;;;26.48;18.35;;;17.60;76.30;;;18.56;42.85;97646.13;5055225;28;20133;-79
2023/01/09 00:18:30;;;;;;;36.13;16.98;;;17.50;76.00;;;18.60;43.14;97653.28;5055410;28;20050;-79
2023/01/09 00:21:05;;;;;;;24.67;16.50;;;17.60;76.10;;;18.62;42.75;97652.91;5076573;28;20040;-79
2023/01/09 00:23:31;;;;;;;24.30;17.15;;;17.60;76.00;;;18.63;42.70;97649.03;5071349;28;20077;-79
2023/01/09 00:26:02;;;;;;;24.27;16.95;;;17.60;76.10;;;18.64;42.79;97650.63;5110478;28;20046;-79
2023/01/09 00:28:28;;;;;;;28.63;18.15;;;17.60;76.20;;;18.65;42.69;97647.53;5086731;28;20378;-79
2023/01/09 00:30:58;;;;;;;24.48;16.98;;;17.60;76.10;;;18.70;42.68;97654.72;5054395;28;20035;-79
2023/01/09 00:34:05;;;;;;;24.77;16.20;;;17.70;76.10;;;18.72;42.61;97657.88;5057667;28;20382;-79
2023/01/09 00:36:32;;;;;;;26.55;17.35;;;17.70;76.10;;;18.70;42.70;97651.97;5099307;28;20082;-79
2023/01/09 00:38:58;;;;;;;27.73;17.50;;;17.70;76.30;;;18.77;42.97;97648.59;5080859;28;20043;-79
2023/01/09 00:41:29;;;;;;;25.42;17.98;;;17.70;76.80;;;18.78;43.09;97655.72;5056738;28;20035;-79
2023/01/09 00:44:26;;;;;;;26.67;17.42;;;17.80;76.80;;;18.79;43.02;97663.59;5058178;28;20035;-79
2023/01/09 00:46:56;;;;;;;22.65;16.83;;;17.80;76.20;;;18.72;42.86;97655.13;5102062;28;20047;-79
2023/01/09 00:49:22;;;;;;;27.55;17.58;;;17.70;76.10;;;18.76;43.03;97652.53;5079430;28;20039;-79
2023/01/09 00:51:48;;;;;;;24.45;15.88;;;17.70;76.30;;;18.77;42.72;97646.66;5076816;28;20402;-79
2023/01/09 00:54:16;;;;;;;28.70;16.08;;;17.80;76.20;;;18.78;42.59;97642.78;5073606;28;20044;-79
2023/01/09 00:56:43;;;;;;;28.08;17.83;;;17.70;76.10;;;18.76;42.87;97642.31;5078562;28;20043;-79
2023/01/09 00:59:09;;;;;;;23.60;16.40;;;17.80;76.20;;;18.76;42.90;97638.78;5093550;28;20043;-79
2023/01/09 01:01:35;;;;;;;22.77;16.05;;;17.70;76.10;;;18.81;42.68;97642.06;5064542;28;20042;-79
2023/01/09 01:07:37;;;;;;;26.23;18.73;;;17.80;76.30;;;18.79;42.70;97647.09;5090666;28;20489;-79
2023/01/09 01:09:35;;;;;;;26.05;17.27;;;17.80;76.20;;;18.81;42.74;97633.81;5113314;28;20039;-79
2023/01/09 01:12:05;;;;;;;23.70;16.88;;;17.70;76.10;;;18.82;42.99;97640.88;5094768;28;20039;-79
2023/01/09 01:14:35;;;;;;;26.52;17.52;;;17.90;76.30;;;18.82;43.09;97643.63;5096215;28;20479;-79
2023/01/09 01:17:02;;;;;;;21.40;15.88;;;17.80;76.60;;;18.86;43.31;97628.03;5095895;28;20099;-79
2023/01/09 01:19:28;;;;;;;26.27;16.00;;;17.80;77.10;;;18.87;42.79;97635.13;5080230;27;20043;-79
2023/01/09 01:21:55;;;;;;;24.60;16.58;;;17.90;76.50;;;18.88;42.82;97630.44;5075261;28;20035;-79
2023/01/09 01:24:21;;;;;;;26.30;17.48;;;17.90;76.30;;;18.86;42.74;97619.81;5079581;28;20446;-79
2023/01/09 01:26:49;;;;;;;26.13;18.20;;;17.90;76.30;;;18.88;42.77;97613.97;5096462;28;20067;-79
2023/01/09 01:29:15;;;;;;;24.20;17.17;;;17.90;76.30;;;18.88;42.96;97613.97;5071699;28;20091;-79
2023/01/09 01:31:41;;;;;;;27.48;17.48;;;17.90;76.40;;;18.85;42.76;97622.91;5080958;27;20045;-79
2023/01/09 01:34:07;;;;;;;25.02;16.65;;;17.90;76.30;;;18.87;42.90;97626.88;5101123;27;20848;-79
2023/01/09 01:36:33;;;;;;;27.42;18.27;;;17.90;76.30;;;18.89;42.69;97618.28;5100249;27;20038;-79
2023/01/09 01:38:59;;;;;;;24.67;16.35;;;17.90;76.40;;;18.89;42.70;97621.03;5100076;27;20486;-79
2023/01/09 01:41:29;;;;;;;22.73;16.90;;;17.90;76.30;;;18.89;42.89;97625.75;5080353;27;20043;-79
2023/01/09 01:44:03;;;;;;;24.75;18.02;;;17.90;76.30;;;18.90;42.86;97614.38;5102197;27;20466;-79
2023/01/09 01:46:30;;;;;;;23.38;16.83;;;17.90;76.50;;;18.91;43.30;97606.97;5099611;27;20105;-79
2023/01/09 01:49:12;;;;;;;18.35;15.27;;;17.90;77.00;;;18.90;42.95;97606.13;5099073;27;20039;-79
2023/01/09 01:51:44;;;;;;;24.90;16.98;;;17.90;76.60;;;18.91;42.92;97618.72;5079809;27;20031;-79
2023/01/09 01:54:15;;;;;;;25.00;17.15;;;17.90;76.30;;;18.92;43.05;97608.53;5067464;27;20070;-79
2023/01/09 01:56:47;;;;;;;27.20;16.92;;;17.90;76.60;;;18.89;42.87;97614.75;5079722;27;20046;-79
2023/01/09 01:59:22;;;;;;;23.70;16.95;;;17.90;76.40;;;18.85;43.13;97611.91;5078472;27;20169;-79
2023/01/09 02:01:54;;;;;;;21.48;16.50;;;17.80;77.20;;;18.87;43.45;97610.41;5112596;27;20055;-79
2023/01/09 02:04:20;;;;;;;20.73;16.17;;;17.80;77.50;;;18.87;43.52;97609.59;5100192;27;20488;-79
2023/01/09 02:06:49;;;;;;;25.65;17.70;;;17.70;77.60;;;18.94;43.05;97595.25;5100441;27;20044;-79
2023/01/09 02:09:17;;;;;;;22.02;15.57;;;17.90;77.20;;;18.92;43.00;97600.28;5061023;27;20036;-79
2023/01/09 02:11:44;;;;;;;21.38;15.43;;;17.90;77.00;;;18.91;43.11;97596.75;5097554;27;20039;-79
2023/01/09 02:14:11;;;;;;;22.48;15.00;;;17.90;77.10;;;18.88;43.05;97586.50;5114837;27;20023;-79
2023/01/09 02:17:29;;;;;;;22.52;14.85;;;17.90;76.80;;;18.90;43.34;97588.84;5079348;27;20039;-79
2023/01/09 02:20:26;;;;;;;24.48;17.52;;;17.90;77.40;;;18.83;43.43;97584.81;5112197;27;20035;-79
2023/01/09 02:23:33;;;;;;;23.98;16.65;;;17.80;77.70;;;18.84;43.29;97591.88;5114562;27;20045;-79
2023/01/09 02:26:46;;;;;;;24.70;16.42;;;17.70;77.60;;;18.85;43.13;97582.50;5114453;27;20122;-79
2023/01/09 02:29:21;;;;;;;24.10;16.88;;;17.70;77.60;;;18.89;43.21;97584.53;5099695;27;20064;-79
2023/01/09 02:32:22;;;;;;;25.98;16.85;;;17.80;77.50;;;18.91;43.43;97574.78;5130392;27;20042;-79
2023/01/09 02:35:47;;;;;;;25.77;16.73;;;17.80;77.70;;;18.90;43.67;97577.88;5096968;27;20035;-79
2023/01/09 02:38:56;;;;;;;24.35;16.42;;;17.80;77.70;;;18.92;43.28;97570.06;5009866;28;20042;-79
2023/01/09 02:41:41;;;;;;;24.50;17.13;;;17.80;77.50;;;18.87;43.15;97582.91;5114220;27;20828;-79
2023/01/09 02:44:32;;;;;;;25.50;17.25;;;17.80;77.30;;;18.86;43.34;97573.09;5076987;27;20435;-79
2023/01/09 02:47:06;;;;;;;22.98;16.10;;;17.80;77.40;;;18.91;43.38;97569.28;5088470;27;20043;-80
2023/01/09 02:49:37;;;;;;;26.73;16.38;;;17.80;77.40;;;18.91;43.15;97565.75;5082964;27;20043;-79
2023/01/09 02:52:13;;;;;;;20.35;14.75;;;17.80;77.30;;;18.91;43.04;97573.97;5081588;27;20050;-80
2023/01/09 02:55:12;;;;;;;27.23;17.77;;;17.90;77.20;;;18.90;43.42;97580.63;5096861;27;20050;-79
2023/01/09 02:58:21;;;;;;;21.90;16.10;;;17.80;77.70;;;18.88;43.43;97581.00;5098938;27;20050;-79
2023/01/09 03:01:13;;;;;;;21.25;15.60;;;17.80;77.90;;;18.91;43.20;97576.72;5088152;27;20059;-79
2023/01/09 03:04:07;;;;;;;24.23;16.17;;;17.70;77.70;;;18.86;43.35;97583.28;5111453;27;20045;-79
2023/01/09 03:06:57;;;;;;;23.55;16.27;;;17.70;77.60;;;18.86;43.45;97583.28;5096967;27;20039;-79
2023/01/09 03:09:26;;;;;;;22.75;15.65;;;17.80;77.40;;;18.90;43.36;97592.41;5081086;27;20051;-79
2023/01/09 03:12:16;;;;;;;26.67;16.85;;;17.80;77.60;;;18.87;43.47;97596.66;5078566;27;20053;-80
2023/01/09 03:14:49;;;;;;;23.33;16.20;;;17.80;77.90;;;18.86;43.51;97600.56;5083637;27;20043;-79
2023/01/09 03:17:27;;;;;;;23.60;15.57;;;17.70;77.70;;;18.87;43.48;97590.38;5080849;27;20039;-79
2023/01/09 03:19:53;;;;;;;24.60;16.65;;;17.70;77.90;;;18.86;43.46;97597.81;5064597;27;20031;-79
2023/01/09 03:22:19;;;;;;;22.23;16.17;;;17.70;77.70;;;18.87;43.30;97588.41;5080322;27;20061;-79
2023/01/09 03:24:45;;;;;;;24.63;17.27;;;17.70;77.60;;;18.90;43.27;97583.38;5100355;27;20045;-79
2023/01/09 03:27:11;;;;;;;23.02;16.10;;;17.80;77.60;;;18.84;43.39;97580.91;5079995;27;20031;-79
2023/01/09 03:29:37;;;;;;;27.92;16.83;;;17.70;77.50;;;18.87;43.38;97579.38;5079210;27;20035;-79
2023/01/09 03:32:04;;;;;;;23.02;15.57;;;17.70;77.50;;;18.87;42.80;97569.19;5098796;27;20483;-80
2023/01/09 03:34:30;;;;;;;25.52;17.35;;;17.80;77.40;;;18.89;43.31;97559.81;5081915;27;20041;-79
2023/01/09 03:36:56;;;;;;;22.80;16.42;;;17.70;77.30;;;18.90;43.03;97547.66;5080761;27;20045;-80
2023/01/09 03:39:23;;;;;;;26.23;18.63;;;17.80;77.30;;;18.85;43.24;97560.53;5079106;27;20504;-79
2023/01/09 03:41:48;;;;;;;26.90;17.35;;;17.80;77.40;;;18.85;43.19;97546.78;5073341;27;20130;-79
2023/01/09 03:44:15;;;;;;;27.25;16.83;;;17.70;77.70;;;18.86;43.90;97533.84;5113452;27;20042;-79
2023/01/09 03:46:41;;;;;;;25.55;17.00;;;17.70;78.10;;;18.84;43.35;97533.41;5078931;27;20401;-79
2023/01/09 03:49:07;;;;;;;24.38;17.10;;;17.70;77.90;;;18.86;43.29;97525.59;5060316;27;20023;-79
2023/01/09 03:51:33;;;;;;;21.23;16.77;;;17.70;77.80;;;18.85;43.43;97521.25;5074467;27;20047;-79
2023/01/09 03:54:00;;;;;;;26.55;17.48;;;17.70;77.60;;;18.83;43.38;97512.59;5077619;27;20054;-79
2023/01/09 03:56:26;;;;;;;23.13;16.38;;;17.70;77.60;;;18.85;43.32;97508.31;5096950;27;20032;-79
2023/01/09 03:58:52;;;;;;;21.20;15.18;;;17.70;77.70;;;18.79;43.42;97515.25;5059552;27;20047;-79
2023/01/09 04:01:18;;;;;;;22.77;16.48;;;17.60;77.80;;;18.83;43.61;97513.38;5095616;27;20079;-79
2023/01/09 04:03:44;;;;;;;23.88;16.02;;;17.70;78.30;;;18.81;43.35;97504.69;5058504;27;20039;-79
2023/01/09 04:06:10;;;;;;;25.10;16.90;;;17.70;77.90;;;18.83;43.36;97498.84;5078665;28;20465;-79
2023/01/09 04:08:36;;;;;;;21.88;16.50;;;17.70;77.90;;;18.81;43.38;97501.94;5097071;28;20043;-79
2023/01/09 04:11:02;;;;;;;26.40;15.68;;;17.70;77.70;;;18.80;43.49;97497.63;5097265;28;20039;-79
2023/01/09 04:13:28;;;;;;;23.13;16.60;;;17.70;77.80;;;18.81;43.28;97495.66;5080961;28;20040;-80
2023/01/09 04:15:54;;;;;;;21.88;15.60;;;17.70;77.60;;;18.82;43.18;97489.78;5097004;28;20035;-79
2023/01/09 04:18:21;;;;;;;28.38;16.88;;;17.70;77.60;;;18.80;43.23;97489.38;5075983;28;20046;-79
2023/01/09 04:20:47;;;;;;;24.80;16.20;;;17.70;77.60;;;18.82;43.30;97487.03;5080438;28;20375;-79
2023/01/09 04:23:14;;;;;;;25.65;17.08;;;17.70;77.60;;;18.83;43.35;97490.59;5077256;28;20044;-79
2023/01/09 04:25:40;;;;;;;24.67;16.05;;;17.70;77.60;;;18.80;43.42;97492.13;5079390;28;20055;-79
2023/01/09 04:28:06;;;;;;;23.42;17.33;;;17.70;77.50;;;18.74;43.56;97499.00;5073232;28;20085;-79
2023/01/09 04:30:32;;;;;;;23.75;16.33;;;17.60;78.00;;;18.81;43.59;97482.72;5073165;28;20106;-80
2023/01/09 04:32:58;;;;;;;22.77;16.30;;;17.60;78.20;;;18.77;43.45;97475.53;5078259;28;20181;-79
2023/01/09 04:35:24;;;;;;;22.20;16.30;;;17.60;78.00;;;18.80;43.43;97480.31;5062560;28;20070;-79
2023/01/09 04:37:50;;;;;;;24.75;17.10;;;17.60;77.90;;;18.77;43.48;97481.03;5112621;28;20472;-80
2023/01/09 04:40:17;;;;;;;23.25;16.38;;;17.60;77.80;;;18.81;43.31;97481.94;5060759;27;20051;-79
2023/01/09 04:42:43;;;;;;;23.40;15.90;;;17.70;77.60;;;18.77;43.38;97470.06;5059636;28;20132;-79
2023/01/09 04:45:10;;;;;;;22.05;15.48;;;17.60;77.70;;;18.73;43.41;97463.69;5096379;28;20043;-79
2023/01/09 04:47:36;;;;;;;22.98;16.67;;;17.60;77.80;;;18.74;43.34;97466.03;5059798;28;20057;-79
2023/01/09 04:50:03;;;;;;;21.67;15.60;;;17.60;77.70;;;18.78;43.36;97466.16;5074402;28;20043;-79
2023/01/09 04:52:29;;;;;;;18.95;14.55;;;17.70;77.60;;;18.75;43.47;97470.44;5095408;28;20049;-79
2023/01/09 04:54:55;;;;;;;23.40;16.60;;;17.60;77.50;;;18.76;43.46;97468.47;5078071;28;20039;-79
2023/01/09 04:57:21;;;;;;;20.90;15.10;;;17.70;77.70;;;18.74;43.32;97462.50;5094391;28;20050;-79
2023/01/09 04:59:47;;;;;;;21.70;16.55;;;17.70;77.60;;;18.78;43.13;97458.72;5058441;28;20043;-79
2023/01/09 05:02:13;;;;;;;23.80;16.45;;;17.60;77.50;;;18.75;43.26;97466.84;5092598;28;20036;-79
2023/01/09 05:04:39;;;;;;;22.73;15.50;;;17.70;77.50;;;18.70;43.42;97454.22;5080036;28;20043;-79
2023/01/09 05:07:06;;;;;;;25.63;17.10;;;17.60;77.50;;;18.72;42.94;97451.88;5082212;27;20048;-79
2023/01/09 05:09:32;;;;;;;25.35;17.13;;;17.60;77.50;;;18.71;43.57;97458.53;5085164;27;20035;-79
2023/01/09 05:11:58;;;;;;;22.27;15.45;;;17.50;78.00;;;18.75;43.27;97461.34;5082631;27;20045;-79
2023/01/09 05:14:24;;;;;;;25.08;16.42;;;17.50;78.10;;;18.73;43.21;97456.22;5115646;27;20047;-79
2023/01/09 05:16:50;;;;;;;19.63;14.82;;;17.50;77.90;;;18.75;43.38;97456.69;5101617;27;20043;-79
2023/01/09 05:19:16;;;;;;;21.05;14.70;;;17.50;77.70;;;18.76;43.27;97454.75;5083099;27;20049;-79
2023/01/09 05:21:42;;;;;;;25.58;16.92;;;17.60;77.70;;;18.73;43.21;97453.47;5079342;27;20040;-79
2023/01/09 05:24:08;;;;;;;25.33;17.15;;;17.60;77.60;;;18.70;43.33;97461.63;5083350;27;20050;-79
2023/01/09 05:26:34;;;;;;;19.00;14.40;;;17.60;77.40;;;18.70;43.08;97459.69;5086829;27;20466;-79
2023/01/09 05:29:00;;;;;;;22.00;15.65;;;17.60;77.50;;;18.71;43.25;97455.00;5117465;27;20036;-79
2023/01/09 05:31:27;;;;;;;20.80;14.80;;;17.60;77.40;;;18.71;43.28;97457.75;5066232;27;20092;-79
2023/01/09 05:33:53;;;;;;;21.98;15.13;;;17.50;77.40;;;18.73;43.27;97458.97;5075995;27;20085;-79
2023/01/09 05:36:19;;;;;;;21.77;15.27;;;17.60;77.40;;;18.69;43.25;97452.59;5078156;27;20543;-79
2023/01/09 05:38:45;;;;;;;21.25;15.98;;;17.60;77.40;;;18.68;43.12;97459.25;5125088;27;20039;-79
2023/01/09 05:41:11;;;;;;;22.17;15.15;;;17.60;77.40;;;18.69;43.16;97452.59;5060274;27;20149;-79
2023/01/09 05:43:37;;;;;;;25.10;17.05;;;17.50;77.30;;;18.69;43.14;97452.59;5083401;27;20371;-79
2023/01/09 05:46:03;;;;;;;23.30;16.77;;;17.60;77.40;;;18.69;42.82;97444.34;5115485;27;20041;-79
2023/01/09 05:48:29;;;;;;;21.85;15.55;;;17.60;77.20;;;18.68;43.16;97439.25;5094039;27;20076;-79
2023/01/09 05:50:55;;;;;;;21.27;14.80;;;17.60;77.30;;;18.68;43.07;97431.78;5082525;27;20393;-79
2023/01/09 05:53:22;;;;;;;23.40;14.45;;;17.60;77.20;;;18.68;43.12;97426.28;5113806;27;20653;-79
2023/01/09 05:55:48;;;;;;;20.88;15.40;;;17.60;77.10;;;18.68;42.61;97425.50;5080330;27;20627;-79
2023/01/09 05:58:14;;;;;;;26.73;15.88;;;17.50;77.00;;;18.69;42.88;97430.63;5060985;27;20040;-79
2023/01/09 06:00:40;;;;;;;24.85;18.00;;;17.50;77.10;;;18.66;42.88;97423.13;5096989;27;20679;-79
2023/01/09 06:03:06;;;;;;;28.55;14.23;;;17.50;77.00;;;18.65;42.90;97422.31;5062654;27;20046;-79
2023/01/09 06:05:32;;;;;;;20.20;14.73;;;17.60;76.90;;;18.70;43.04;97423.19;5093541;27;20039;-79
2023/01/09 06:07:58;;;;;;;22.73;14.93;;;17.50;77.00;;;18.64;42.97;97420.72;5076936;27;20521;-79
2023/01/09 06:10:25;;;;;;;21.80;16.50;;;17.50;77.10;;;18.62;43.04;97431.28;5059003;27;20035;-79
2023/01/09 06:12:52;;;;;;;17.15;14.32;;;17.50;77.00;;;18.63;42.90;97421.09;5043643;27;20105;-78
2023/01/09 06:15:19;;;;;;;23.38;14.77;;;17.50;77.00;;;18.65;42.89;97418.78;5098546;27;20039;-79
2023/01/09 06:17:45;;;;;;;22.30;14.50;;;17.50;76.90;;;18.65;42.82;97414.09;5097727;27;20096;-79
2023/01/09 06:20:11;;;;;;;25.40;15.05;;;17.60;77.10;;;18.59;43.19;97409.22;5079568;27;20043;-79
2023/01/09 06:22:37;;;;;;;21.25;16.40;;;17.50;77.30;;;18.63;43.29;97412.84;5079895;27;20039;-79
2023/01/09 06:25:05;;;;;;;23.95;15.30;;;17.50;77.30;;;18.61;43.01;97417.91;5079843;27;20046;-79
2023/01/09 06:27:31;;;;;;;19.50;15.50;;;17.60;77.10;;;18.59;43.08;97425.69;5080620;27;20039;-79
2023/01/09 06:29:57;;;;;;;19.75;16.58;;;17.50;76.90;;;18.62;43.05;97422.22;5097063;27;20043;-79
2023/01/09 06:32:23;;;;;;;23.05;15.48;;;17.50;76.90;;;18.60;43.12;97419.84;5064943;27;20046;-79
2023/01/09 06:34:49;;;;;;;22.33;15.20;;;17.50;76.90;;;18.63;42.90;97421.09;5079977;27;20108;-79
2023/01/09 06:37:15;;;;;;;19.67;15.70;;;17.50;77.00;;;18.62;42.81;97419.47;5080460;27;20447;-79
2023/01/09 06:39:41;;;;;;;18.70;14.23;;;17.40;76.90;;;18.58;42.89;97413.94;5076250;27;20050;-79
2023/01/09 06:42:07;;;;;;;25.52;16.08;;;17.50;77.00;;;18.62;42.74;97412.06;5098014;27;20379;-79
2023/01/09 06:44:35;;;;;;;22.67;15.80;;;17.50;77.90;;;18.58;42.83;97415.88;5060600;27;20054;-79
2023/01/09 06:47:04;;;;;;;21.40;14.40;;;17.40;76.90;;;18.57;43.08;97415.09;5092055;27;20092;-79
2023/01/09 06:49:30;;;;;;;21.85;14.43;;;17.50;77.30;;;18.54;43.31;97412.25;5096926;27;20039;-79
2023/01/09 06:51:56;;;;;;;19.60;15.10;;;17.50;77.30;;;18.55;43.39;97408.38;5080341;27;20039;-79
2023/01/09 06:54:23;;;;;;;20.08;14.80;;;17.50;77.30;;;18.58;43.06;97405.69;5078958;27;20470;-79
2023/01/09 06:56:49;;;;;;;21.15;15.48;;;17.40;77.00;;;18.55;42.83;97402.88;5073725;27;20065;-79
2023/01/09 06:59:15;;;;;;;23.45;15.85;;;17.50;77.10;;;18.54;42.96;97396.56;5072109;27;20047;-79
2023/01/09 07:01:41;;;;;;;21.42;15.68;;;17.40;77.00;;;18.53;42.89;97395.00;5094871;27;20036;-79
2023/01/09 07:04:09;;;;;;;22.48;14.82;;;17.50;76.80;;;18.57;42.85;97392.31;5129678;27;20083;-79
2023/01/09 07:06:36;;;;;;;20.60;15.15;;;17.50;76.90;;;18.56;42.83;97397.00;5075392;27;20055;-79
2023/01/09 07:09:04;;;;;;;18.95;13.68;;;17.50;76.80;;;18.55;42.96;97402.88;5103453;27;20448;-79
2023/01/09 07:11:31;;;;;;;20.13;14.43;;;17.40;76.80;;;18.56;43.17;97404.47;5093170;27;20048;-79
2023/01/09 07:13:57;;;;;;;22.23;15.82;;;17.40;77.20;;;18.56;43.25;97407.19;5078514;27;20050;-79
2023/01/09 07:16:23;;;;;;;23.38;15.55;;;17.50;77.30;;;18.51;43.21;97410.22;5079036;27;20038;-79
2023/01/09 07:18:51;;;;;;;21.73;13.95;;;17.40;77.20;;;18.56;42.94;97402.50;5096501;27;20134;-78
2023/01/09 07:21:17;;;;;;;23.48;15.52;;;17.40;77.10;;;18.59;42.83;97417.47;5098992;27;20126;-78
2023/01/09 07:23:43;;;;;;;21.73;15.63;;;17.40;76.90;;;18.57;42.84;97414.28;5055565;27;20040;-77
2023/01/09 07:26:09;;;;;;;22.02;16.13;;;17.50;76.90;;;18.55;43.03;97405.63;5075478;27;20046;-78
2023/01/09 07:28:35;;;;;;;21.88;14.80;;;17.40;76.80;;;18.56;42.92;97409.94;5092382;27;20374;-78
2023/01/09 07:31:03;;;;;;;26.73;15.57;;;17.40;76.90;;;18.57;43.04;97409.59;5077599;27;20544;-77
2023/01/09 07:33:29;;;;;;;24.02;15.52;;;17.40;76.90;;;18.55;42.85;97414.66;5058302;27;20039;-77
2023/01/09 07:35:55;;;;;;;20.02;13.95;;;17.40;76.90;;;18.52;42.99;97414.56;5049603;28;20044;-78
2023/01/09 07:38:21;;;;;;;22.55;15.60;;;17.40;76.80;;;18.49;43.04;97409.78;5075549;27;20038;-77
2023/01/09 07:40:47;;;;;;;18.58;14.00;;;17.40;76.80;;;18.53;42.79;97407.94;5080284;27;20401;-78
2023/01/09 07:43:14;;;;;;;18.98;14.05;;;17.50;76.70;;;18.59;42.73;97410.00;5113009;27;20039;-78
2023/01/09 07:45:39;;;;;;;18.85;15.40;;;17.50;76.70;;;18.55;43.08;97420.16;5095296;27;20057;-77
2023/01/09 07:48:06;;;;;;;22.65;14.68;;;17.50;77.00;;;18.54;43.06;97421.28;5095370;27;20103;-78
2023/01/09 07:50:32;;;;;;;21.60;14.38;;;17.50;77.00;;;18.53;42.99;97421.66;5095871;27;20047;-77
2023/01/09 07:52:58;;;;;;;24.38;14.80;;;17.50;76.80;;;18.50;42.94;97420.44;5079434;27;20035;-78
2023/01/09 07:55:24;;;;;;;20.02;14.05;;;17.40;76.80;;;18.55;42.74;97416.59;5079358;27;20539;-77
2023/01/09 07:57:51;;;;;;;20.88;14.60;;;17.40;77.00;;;18.52;42.47;97414.56;5093204;27;20043;-78
2023/01/09 08:00:19;;;;;;;17.60;14.63;;;17.40;76.80;;;18.55;42.71;97416.59;5074245;27;20034;-77
2023/01/09 08:02:51;;;;;;;19.42;14.52;;;17.40;77.10;;;18.54;43.15;97413.03;5095999;27;20147;-77
2023/01/09 08:05:18;;;;;;;16.50;13.18;;;17.40;77.10;;;18.54;43.12;97409.50;5058277;27;20119;-77
2023/01/09 08:07:44;;;;;;;19.50;14.57;;;17.50;77.10;;;18.54;42.79;97420.50;5077973;27;20065;-77
2023/01/09 08:10:10;;;;;;;20.33;14.43;;;17.50;76.80;;;18.52;42.77;97409.06;5078970;27;20043;-77
2023/01/09 08:12:37;;;;;;;22.45;15.63;;;17.40;76.70;;;18.51;42.79;97404.75;5060788;27;20124;-77
2023/01/09 08:15:03;;;;;;;18.33;13.20;;;17.40;76.60;;;18.52;42.92;97414.56;5092787;28;20039;-78
2023/01/09 08:17:30;;;;;;;20.75;15.35;;;17.50;76.60;;;18.55;42.48;97402.88;5060500;28;20051;-77
2023/01/09 08:19:56;;;;;;;20.40;16.10;;;17.50;76.30;;;18.51;42.66;97394.56;5096276;28;20035;-78
2023/01/09 08:22:22;;;;;;;17.83;13.63;;;17.40;76.30;;;18.49;42.66;97383.13;5094837;28;20046;-77
2023/01/09 08:24:51;;;;;;;21.13;14.55;;;17.40;76.50;;;18.52;42.83;97384.34;5097053;28;20035;-77
2023/01/09 08:27:17;;;;;;;20.42;15.07;;;17.40;76.70;;;18.55;43.18;97380.91;5093972;28;20077;-78
2023/01/09 08:29:43;;;;;;;17.80;14.00;;;17.40;77.00;;;18.56;43.04;97385.22;5076834;28;20081;-78
2023/01/09 08:32:10;;;;;;;21.10;14.85;;;17.50;76.90;;;18.53;42.69;97367.53;5077384;28;20490;-77
2023/01/09 08:34:36;;;;;;;20.17;14.90;;;17.50;76.50;;;18.54;42.76;97373.81;5059490;28;20039;-78
2023/01/09 08:37:02;;;;;;;19.90;13.95;;;17.50;76.10;;;18.54;42.76;97374.59;5074708;28;20087;-78
2023/01/09 08:39:28;;;;;;;18.60;13.35;;;17.50;75.90;;;18.53;42.68;97378.50;5107515;27;20043;-78
2023/01/09 08:47:24;;;;;;;19.48;12.82;;;17.60;76.70;;;18.53;42.85;97380.47;5097459;27;20508;-77
2023/01/09 08:49:50;;;;;;;21.73;13.45;;;17.60;76.00;;;18.52;42.79;97387.09;5132676;27;20394;-78
2023/01/09 08:52:16;;;;;;;18.95;12.93;;;17.50;75.90;;;18.51;42.77;97388.28;5081888;27;20474;-78
2023/01/09 08:54:42;;;;;;;24.02;14.48;;;17.50;76.00;;;18.55;42.65;97397.38;5100390;27;20087;-78
2023/01/09 08:57:11;;;;;;;19.08;14.40;;;17.50;75.90;;;18.53;42.52;97389.50;5073638;27;20719;-78
2023/01/09 08:59:37;;;;;;;16.08;12.68;;;17.50;75.90;;;18.51;42.77;97385.53;5081984;27;20470;-77
2023/01/09 09:02:03;;;;;;;19.05;13.68;;;17.50;75.90;;;18.52;42.52;97392.59;5081065;27;20039;-78
2023/01/09 09:04:29;;;;;;;20.50;13.55;;;17.50;75.90;;;18.51;42.60;97382.78;5079998;27;20058;-77
2023/01/09 09:06:55;;;;;;;18.77;14.02;;;17.50;76.00;;;18.52;42.46;97381.59;5095567;27;20103;-77
2023/01/09 09:09:21;;;;;;;19.20;14.48;;;17.50;75.90;;;18.56;42.40;97377.00;5108114;27;20035;-77
2023/01/09 09:11:51;;;;;;;17.92;13.13;;;17.50;75.90;;;18.51;42.30;97380.03;5082502;27;20122;-77
2023/01/09 09:17:02;;;;;;;18.67;14.50;;;17.50;75.90;;;18.50;42.74;97375.72;5113027;27;20035;-77
2023/01/09 09:19:29;;;;;;;22.40;14.35;;;17.50;76.00;;;18.51;42.98;97363.56;5083099;27;20043;-77
2023/01/09 09:21:55;;;;;;;18.92;14.18;;;17.60;76.10;;;18.51;42.64;97369.06;5077323;27;20526;-78
2023/01/09 09:24:21;;;;;;;19.45;13.75;;;17.60;76.00;;;18.53;42.33;97364.78;5098709;27;20035;-77
2023/01/09 09:26:47;;;;;;;14.93;13.15;;;17.60;76.00;;;18.54;42.51;97357.34;5075916;27;20041;-77
2023/01/09 09:29:13;;;;;;;17.88;14.20;;;17.50;75.90;;;18.53;42.15;97355.75;5113214;27;20032;-77
2023/01/09 09:31:40;;;;;;;17.95;13.40;;;17.50;75.90;;;18.53;42.83;97350.28;5060854;27;20044;-78
2023/01/09 09:34:06;;;;;;;16.77;12.40;;;17.60;76.00;;;18.54;42.76;97341.66;5098379;27;20035;-78
2023/01/09 09:36:32;;;;;;;20.02;14.07;;;17.60;76.00;;;18.48;42.85;97345.06;5077287;27;20031;-78
2023/01/09 09:38:58;;;;;;;21.02;13.82;;;17.60;76.00;;;18.49;42.65;97332.91;5076287;27;20043;-78
2023/01/09 09:44:54;;;;;;;18.38;13.88;;;17.60;76.00;;;18.48;42.45;97348.59;5102154;27;20082;-77
2023/01/09 09:47:45;;;;;;;20.85;13.82;;;17.60;76.00;;;18.49;42.55;97333.69;5114140;27;20091;-77
2023/01/09 09:51:36;;;;;;;16.50;12.88;;;17.60;75.90;;;18.44;42.48;97337.56;5116418;27;20114;-77
2023/01/09 09:54:11;;;;;;;18.55;13.15;;;17.60;75.70;;;18.48;42.44;97329.38;5086396;28;20042;-77
2023/01/09 09:56:47;;;;;;;18.73;14.05;;;17.50;75.70;;;18.50;42.41;97334.53;5072462;28;20089;-77
2023/01/09 09:59:28;;;;;;;18.85;13.50;;;17.50;75.80;;;18.49;42.34;97338.41;5076578;27;20050;-78
2023/01/09 10:02:31;;;;;;;19.00;12.63;;;17.60;75.60;;;18.49;42.44;97332.91;5077624;27;20546;-77
2023/01/09 10:05:06;;;;;;;18.48;13.52;;;17.60;75.70;;;18.43;42.42;97333.19;5078498;27;20176;-77
2023/01/09 10:07:40;;;;;;;18.42;13.05;;;17.60;75.60;;;18.48;42.37;97325.84;5061819;27;20051;-77
2023/01/09 10:10:34;;;;;;;19.52;13.93;;;17.60;75.50;;;18.44;42.34;97318.34;5082175;27;20039;-77
2023/01/09 10:14:03;;;;;;;20.58;13.43;;;17.60;75.50;;;18.48;42.66;97306.63;5083369;27;20098;-78
2023/01/09 10:15:55;;;;;;;18.15;13.98;;;17.60;75.70;;;18.52;42.52;97293.75;5102021;27;20043;-77
2023/01/09 10:18:45;;;;;;;19.77;13.75;;;17.60;75.90;;;18.51;42.63;97300.41;5094575;27;20095;-77
2023/01/09 10:21:26;;;;;;;16.80;12.40;;;17.60;76.00;;;18.49;42.47;97299.97;5094669;27;20482;-77
2023/01/09 10:24:35;;;;;;;19.90;13.03;;;17.60;75.60;;;18.53;42.26;97289.84;5097351;27;20114;-77
2023/01/09 10:27:15;;;;;;;17.20;13.13;;;17.60;75.60;;;18.49;42.34;97294.47;5114285;27;20291;-78
2023/01/09 10:29:48;;;;;;;19.38;14.40;;;17.50;75.60;;;18.50;42.59;97294.13;5083740;27;20046;-77
2023/01/09 10:32:49;;;;;;;16.92;13.13;;;17.60;75.80;;;18.53;42.68;97287.13;5110869;27;20035;-77
2023/01/09 10:36:15;;;;;;;19.90;14.60;;;17.70;75.90;;;18.53;42.43;97289.84;5132804;27;20035;-78